sensor_id;sensor_type;location;lat;lon;timestamp;P1;P2;P0
49708;PMS5003;35601;55.902;13.606;2022-08-03T00:01:06;7;7;
49708;PMS5003;35601;55.902;13.606;2022-08-03T00:03:33;7;7;
49708;PMS5003;35601;55.902;13.606;2022-08-03T00:06:00;12;11;
49708;PMS5003;35601;55.902;13.606;2022-08-03T00:08:27;7;7;
49708;PMS5003;35601;55.902;13.606;2022-08-03T00:10:54;9;9;
49708;PMS5003;35601;55.902;13.606;2022-08-03T00:13:21;9;8;
49708;PMS5003;35601;55.902;13.606;2022-08-03T00:15:47;11;11;
49708;PMS5003;35601;55.902;13.606;2022-08-03T00:18:14;9;7;
49708;PMS5003;35601;55.902;13.606;2022-08-03T00:20:41;9;7;
49708;PMS5003;35601;55.902;13.606;2022-08-03T00:23:08;12;9;
49708;PMS5003;35601;55.902;13.606;2022-08-03T00:25:35;8;7;
49708;PMS5003;35601;55.902;13.606;2022-08-03T00:28:03;10;8;
49708;PMS5003;35601;55.902;13.606;2022-08-03T00:30:31;9;8;
49708;PMS5003;35601;55.902;13.606;2022-08-03T00:32:59;7;6;
49708;PMS5003;35601;55.902;13.606;2022-08-03T00:35:27;7;6;
49708;PMS5003;35601;55.902;13.606;2022-08-03T00:37:55;10;9;
49708;PMS5003;35601;55.902;13.606;2022-08-03T00:40:22;11;11;
49708;PMS5003;35601;55.902;13.606;2022-08-03T00:42:50;11;9;
49708;PMS5003;35601;55.902;13.606;2022-08-03T00:45:19;5;5;
49708;PMS5003;35601;55.902;13.606;2022-08-03T00:47:48;6;6;
49708;PMS5003;35601;55.902;13.606;2022-08-03T00:50:16;9;8;
49708;PMS5003;35601;55.902;13.606;2022-08-03T00:52:45;10;9;
49708;PMS5003;35601;55.902;13.606;2022-08-03T00:55:13;8;8;
49708;PMS5003;35601;55.902;13.606;2022-08-03T00:57:41;5;5;
49708;PMS5003;35601;55.902;13.606;2022-08-03T01:00:09;12;9;
49708;PMS5003;35601;55.902;13.606;2022-08-03T01:02:39;9;7;
49708;PMS5003;35601;55.902;13.606;2022-08-03T01:05:07;9;9;
49708;PMS5003;35601;55.902;13.606;2022-08-03T01:07:38;7;7;
49708;PMS5003;35601;55.902;13.606;2022-08-03T01:10:16;10;9;
49708;PMS5003;35601;55.902;13.606;2022-08-03T01:12:55;12;8;
49708;PMS5003;35601;55.902;13.606;2022-08-03T01:15:41;8;8;
49708;PMS5003;35601;55.902;13.606;2022-08-03T01:18:13;8;8;
49708;PMS5003;35601;55.902;13.606;2022-08-03T01:20:48;7;7;
49708;PMS5003;35601;55.902;13.606;2022-08-03T01:23:26;8;7;
49708;PMS5003;35601;55.902;13.606;2022-08-03T01:26:17;12;9;
49708;PMS5003;35601;55.902;13.606;2022-08-03T01:29:15;8;6;
49708;PMS5003;35601;55.902;13.606;2022-08-03T01:32:00;8;7;
49708;PMS5003;35601;55.902;13.606;2022-08-03T01:34:35;9;9;
49708;PMS5003;35601;55.902;13.606;2022-08-03T01:37:10;9;8;
49708;PMS5003;35601;55.902;13.606;2022-08-03T01:39:41;9;8;
49708;PMS5003;35601;55.902;13.606;2022-08-03T01:42:10;5;5;
49708;PMS5003;35601;55.902;13.606;2022-08-03T01:44:40;8;6;
49708;PMS5003;35601;55.902;13.606;2022-08-03T01:47:09;7;7;
49708;PMS5003;35601;55.902;13.606;2022-08-03T01:49:39;7;7;
49708;PMS5003;35601;55.902;13.606;2022-08-03T01:52:10;7;6;
49708;PMS5003;35601;55.902;13.606;2022-08-03T01:54:44;7;7;
49708;PMS5003;35601;55.902;13.606;2022-08-03T01:57:14;7;6;
49708;PMS5003;35601;55.902;13.606;2022-08-03T01:59:43;9;8;
49708;PMS5003;35601;55.902;13.606;2022-08-03T02:02:13;9;9;
49708;PMS5003;35601;55.902;13.606;2022-08-03T02:04:42;6;6;
49708;PMS5003;35601;55.902;13.606;2022-08-03T02:07:10;7;7;
49708;PMS5003;35601;55.902;13.606;2022-08-03T02:09:40;8;8;
49708;PMS5003;35601;55.902;13.606;2022-08-03T02:12:13;8;7;
49708;PMS5003;35601;55.902;13.606;2022-08-03T02:14:42;7;7;
49708;PMS5003;35601;55.902;13.606;2022-08-03T02:17:11;8;6;
49708;PMS5003;35601;55.902;13.606;2022-08-03T02:19:39;7;6;
49708;PMS5003;35601;55.902;13.606;2022-08-03T02:22:09;7;7;
49708;PMS5003;35601;55.902;13.606;2022-08-03T02:24:38;7;6;
49708;PMS5003;35601;55.902;13.606;2022-08-03T02:27:13;7;7;
49708;PMS5003;35601;55.902;13.606;2022-08-03T02:29:47;6;6;
49708;PMS5003;35601;55.902;13.606;2022-08-03T02:32:20;10;8;
49708;PMS5003;35601;55.902;13.606;2022-08-03T02:34:50;7;7;
49708;PMS5003;35601;55.902;13.606;2022-08-03T02:37:22;8;6;
49708;PMS5003;35601;55.902;13.606;2022-08-03T02:39:54;8;7;
49708;PMS5003;35601;55.902;13.606;2022-08-03T02:42:29;7;7;
49708;PMS5003;35601;55.902;13.606;2022-08-03T02:44:59;7;6;
49708;PMS5003;35601;55.902;13.606;2022-08-03T02:47:31;15;12;
49708;PMS5003;35601;55.902;13.606;2022-08-03T02:50:03;7;7;
49708;PMS5003;35601;55.902;13.606;2022-08-03T02:52:32;6;6;
49708;PMS5003;35601;55.902;13.606;2022-08-03T02:55:01;9;7;
49708;PMS5003;35601;55.902;13.606;2022-08-03T02:57:30;8;6;
49708;PMS5003;35601;55.902;13.606;2022-08-03T02:59:58;9;7;
49708;PMS5003;35601;55.902;13.606;2022-08-03T03:02:27;6;6;
49708;PMS5003;35601;55.902;13.606;2022-08-03T03:04:55;7;7;
49708;PMS5003;35601;55.902;13.606;2022-08-03T03:07:23;9;7;
49708;PMS5003;35601;55.902;13.606;2022-08-03T03:09:52;6;6;
49708;PMS5003;35601;55.902;13.606;2022-08-03T03:12:20;8;8;
49708;PMS5003;35601;55.902;13.606;2022-08-03T03:14:47;8;7;
49708;PMS5003;35601;55.902;13.606;2022-08-03T03:17:14;7;6;
49708;PMS5003;35601;55.902;13.606;2022-08-03T03:19:43;6;6;
49708;PMS5003;35601;55.902;13.606;2022-08-03T03:22:11;10;7;
49708;PMS5003;35601;55.902;13.606;2022-08-03T03:24:39;9;7;
49708;PMS5003;35601;55.902;13.606;2022-08-03T03:27:07;9;8;
49708;PMS5003;35601;55.902;13.606;2022-08-03T03:29:34;6;6;
49708;PMS5003;35601;55.902;13.606;2022-08-03T03:32:03;4;4;
49708;PMS5003;35601;55.902;13.606;2022-08-03T03:34:32;5;5;
49708;PMS5003;35601;55.902;13.606;2022-08-03T03:36:59;7;7;
49708;PMS5003;35601;55.902;13.606;2022-08-03T03:39:27;5;5;
49708;PMS5003;35601;55.902;13.606;2022-08-03T03:41:54;7;6;
49708;PMS5003;35601;55.902;13.606;2022-08-03T03:44:22;5;4;
49708;PMS5003;35601;55.902;13.606;2022-08-03T03:46:53;6;6;
49708;PMS5003;35601;55.902;13.606;2022-08-03T03:49:21;6;6;
49708;PMS5003;35601;55.902;13.606;2022-08-03T03:51:53;5;5;
49708;PMS5003;35601;55.902;13.606;2022-08-03T03:54:21;5;5;
49708;PMS5003;35601;55.902;13.606;2022-08-03T03:56:47;5;5;
49708;PMS5003;35601;55.902;13.606;2022-08-03T03:59:14;8;5;
49708;PMS5003;35601;55.902;13.606;2022-08-03T04:01:42;7;7;
49708;PMS5003;35601;55.902;13.606;2022-08-03T04:04:10;7;7;
49708;PMS5003;35601;55.902;13.606;2022-08-03T04:06:37;6;6;
49708;PMS5003;35601;55.902;13.606;2022-08-03T04:09:04;5;5;
49708;PMS5003;35601;55.902;13.606;2022-08-03T04:11:35;9;6;
49708;PMS5003;35601;55.902;13.606;2022-08-03T04:14:08;6;6;
49708;PMS5003;35601;55.902;13.606;2022-08-03T04:16:42;7;7;
49708;PMS5003;35601;55.902;13.606;2022-08-03T04:19:14;5;5;
49708;PMS5003;35601;55.902;13.606;2022-08-03T04:21:50;10;6;
49708;PMS5003;35601;55.902;13.606;2022-08-03T04:24:20;8;8;
49708;PMS5003;35601;55.902;13.606;2022-08-03T04:26:49;8;7;
49708;PMS5003;35601;55.902;13.606;2022-08-03T04:29:17;6;6;
49708;PMS5003;35601;55.902;13.606;2022-08-03T04:31:46;6;5;
49708;PMS5003;35601;55.902;13.606;2022-08-03T04:34:14;8;8;
49708;PMS5003;35601;55.902;13.606;2022-08-03T04:36:43;7;6;
49708;PMS5003;35601;55.902;13.606;2022-08-03T04:39:25;7;6;
49708;PMS5003;35601;55.902;13.606;2022-08-03T04:41:57;6;6;
49708;PMS5003;35601;55.902;13.606;2022-08-03T04:44:26;7;7;
49708;PMS5003;35601;55.902;13.606;2022-08-03T04:46:56;6;5;
49708;PMS5003;35601;55.902;13.606;2022-08-03T04:49:24;7;7;
49708;PMS5003;35601;55.902;13.606;2022-08-03T04:51:52;7;7;
49708;PMS5003;35601;55.902;13.606;2022-08-03T04:54:21;8;5;
49708;PMS5003;35601;55.902;13.606;2022-08-03T04:56:48;8;8;
49708;PMS5003;35601;55.902;13.606;2022-08-03T04:59:15;5;5;
49708;PMS5003;35601;55.902;13.606;2022-08-03T05:01:42;10;9;
49708;PMS5003;35601;55.902;13.606;2022-08-03T05:04:09;8;8;
49708;PMS5003;35601;55.902;13.606;2022-08-03T05:06:39;7;6;
49708;PMS5003;35601;55.902;13.606;2022-08-03T05:09:14;7;7;
49708;PMS5003;35601;55.902;13.606;2022-08-03T05:11:41;5;5;
49708;PMS5003;35601;55.902;13.606;2022-08-03T05:14:08;5;5;
49708;PMS5003;35601;55.902;13.606;2022-08-03T05:16:35;6;6;
49708;PMS5003;35601;55.902;13.606;2022-08-03T05:19:02;5;5;
49708;PMS5003;35601;55.902;13.606;2022-08-03T05:21:29;8;8;
49708;PMS5003;35601;55.902;13.606;2022-08-03T05:23:56;5;5;
49708;PMS5003;35601;55.902;13.606;2022-08-03T05:26:23;7;6;
49708;PMS5003;35601;55.902;13.606;2022-08-03T05:28:50;5;5;
49708;PMS5003;35601;55.902;13.606;2022-08-03T05:31:17;5;5;
49708;PMS5003;35601;55.902;13.606;2022-08-03T05:33:47;9;7;
49708;PMS5003;35601;55.902;13.606;2022-08-03T05:36:24;8;7;
49708;PMS5003;35601;55.902;13.606;2022-08-03T05:38:50;8;4;
49708;PMS5003;35601;55.902;13.606;2022-08-03T05:41:17;7;7;
49708;PMS5003;35601;55.902;13.606;2022-08-03T05:43:44;5;5;
49708;PMS5003;35601;55.902;13.606;2022-08-03T05:46:12;8;7;
49708;PMS5003;35601;55.902;13.606;2022-08-03T05:48:38;6;6;
49708;PMS5003;35601;55.902;13.606;2022-08-03T05:51:06;6;6;
49708;PMS5003;35601;55.902;13.606;2022-08-03T05:53:34;6;6;
49708;PMS5003;35601;55.902;13.606;2022-08-03T05:56:01;7;5;
49708;PMS5003;35601;55.902;13.606;2022-08-03T05:58:28;5;5;
49708;PMS5003;35601;55.902;13.606;2022-08-03T06:00:56;7;7;
49708;PMS5003;35601;55.902;13.606;2022-08-03T06:03:23;4;4;
49708;PMS5003;35601;55.902;13.606;2022-08-03T06:05:50;9;6;
49708;PMS5003;35601;55.902;13.606;2022-08-03T06:08:19;5;5;
49708;PMS5003;35601;55.902;13.606;2022-08-03T06:10:46;5;5;
49708;PMS5003;35601;55.902;13.606;2022-08-03T06:13:13;6;6;
49708;PMS5003;35601;55.902;13.606;2022-08-03T06:15:40;7;5;
49708;PMS5003;35601;55.902;13.606;2022-08-03T06:18:07;6;4;
49708;PMS5003;35601;55.902;13.606;2022-08-03T06:20:34;5;5;
49708;PMS5003;35601;55.902;13.606;2022-08-03T06:23:01;10;9;
49708;PMS5003;35601;55.902;13.606;2022-08-03T06:25:28;7;5;
49708;PMS5003;35601;55.902;13.606;2022-08-03T06:27:55;6;5;
49708;PMS5003;35601;55.902;13.606;2022-08-03T06:30:23;5;5;
49708;PMS5003;35601;55.902;13.606;2022-08-03T06:32:50;5;5;
49708;PMS5003;35601;55.902;13.606;2022-08-03T06:35:17;6;4;
49708;PMS5003;35601;55.902;13.606;2022-08-03T06:37:45;5;5;
49708;PMS5003;35601;55.902;13.606;2022-08-03T06:40:16;4;4;
49708;PMS5003;35601;55.902;13.606;2022-08-03T06:42:44;9;6;
49708;PMS5003;35601;55.902;13.606;2022-08-03T06:45:11;6;6;
49708;PMS5003;35601;55.902;13.606;2022-08-03T06:47:38;7;7;
49708;PMS5003;35601;55.902;13.606;2022-08-03T06:50:06;6;6;
49708;PMS5003;35601;55.902;13.606;2022-08-03T06:52:34;10;9;
49708;PMS5003;35601;55.902;13.606;2022-08-03T06:55:02;3;3;
49708;PMS5003;35601;55.902;13.606;2022-08-03T06:57:29;5;5;
49708;PMS5003;35601;55.902;13.606;2022-08-03T06:59:56;7;7;
49708;PMS5003;35601;55.902;13.606;2022-08-03T07:02:23;4;4;
49708;PMS5003;35601;55.902;13.606;2022-08-03T07:04:49;7;7;
49708;PMS5003;35601;55.902;13.606;2022-08-03T07:07:16;8;6;
49708;PMS5003;35601;55.902;13.606;2022-08-03T07:09:43;8;6;
49708;PMS5003;35601;55.902;13.606;2022-08-03T07:12:10;6;6;
49708;PMS5003;35601;55.902;13.606;2022-08-03T07:14:37;8;6;
49708;PMS5003;35601;55.902;13.606;2022-08-03T07:17:08;8;8;
49708;PMS5003;35601;55.902;13.606;2022-08-03T07:19:46;7;7;
49708;PMS5003;35601;55.902;13.606;2022-08-03T07:22:14;8;8;
49708;PMS5003;35601;55.902;13.606;2022-08-03T07:24:41;8;8;
49708;PMS5003;35601;55.902;13.606;2022-08-03T07:27:09;7;7;
49708;PMS5003;35601;55.902;13.606;2022-08-03T07:29:36;7;7;
49708;PMS5003;35601;55.902;13.606;2022-08-03T07:32:03;6;6;
49708;PMS5003;35601;55.902;13.606;2022-08-03T07:34:31;9;7;
49708;PMS5003;35601;55.902;13.606;2022-08-03T07:36:58;9;6;
49708;PMS5003;35601;55.902;13.606;2022-08-03T07:39:25;7;5;
49708;PMS5003;35601;55.902;13.606;2022-08-03T07:41:52;8;7;
49708;PMS5003;35601;55.902;13.606;2022-08-03T07:44:19;10;9;
49708;PMS5003;35601;55.902;13.606;2022-08-03T07:46:46;9;8;
49708;PMS5003;35601;55.902;13.606;2022-08-03T07:49:13;8;8;
49708;PMS5003;35601;55.902;13.606;2022-08-03T07:51:40;8;7;
49708;PMS5003;35601;55.902;13.606;2022-08-03T07:54:06;10;8;
49708;PMS5003;35601;55.902;13.606;2022-08-03T07:56:33;8;8;
49708;PMS5003;35601;55.902;13.606;2022-08-03T07:59:01;6;6;
49708;PMS5003;35601;55.902;13.606;2022-08-03T08:01:29;9;8;
49708;PMS5003;35601;55.902;13.606;2022-08-03T08:03:56;8;7;
49708;PMS5003;35601;55.902;13.606;2022-08-03T08:06:23;9;9;
49708;PMS5003;35601;55.902;13.606;2022-08-03T08:08:50;7;7;
49708;PMS5003;35601;55.902;13.606;2022-08-03T08:11:16;7;7;
49708;PMS5003;35601;55.902;13.606;2022-08-03T08:13:43;8;8;
49708;PMS5003;35601;55.902;13.606;2022-08-03T08:16:10;8;7;
49708;PMS5003;35601;55.902;13.606;2022-08-03T08:18:37;10;8;
49708;PMS5003;35601;55.902;13.606;2022-08-03T08:21:04;8;6;
49708;PMS5003;35601;55.902;13.606;2022-08-03T08:23:31;7;7;
49708;PMS5003;35601;55.902;13.606;2022-08-03T08:25:58;7;7;
49708;PMS5003;35601;55.902;13.606;2022-08-03T08:28:25;8;8;
49708;PMS5003;35601;55.902;13.606;2022-08-03T08:30:52;7;7;
49708;PMS5003;35601;55.902;13.606;2022-08-03T08:33:19;9;7;
49708;PMS5003;35601;55.902;13.606;2022-08-03T08:35:46;6;6;
49708;PMS5003;35601;55.902;13.606;2022-08-03T08:38:12;7;7;
49708;PMS5003;35601;55.902;13.606;2022-08-03T08:40:39;8;7;
49708;PMS5003;35601;55.902;13.606;2022-08-03T08:43:07;8;6;
49708;PMS5003;35601;55.902;13.606;2022-08-03T08:45:34;9;9;
49708;PMS5003;35601;55.902;13.606;2022-08-03T08:48:02;8;8;
49708;PMS5003;35601;55.902;13.606;2022-08-03T08:50:32;9;9;
49708;PMS5003;35601;55.902;13.606;2022-08-03T08:53:01;9;9;
49708;PMS5003;35601;55.902;13.606;2022-08-03T08:55:29;9;8;
49708;PMS5003;35601;55.902;13.606;2022-08-03T08:57:59;7;7;
49708;PMS5003;35601;55.902;13.606;2022-08-03T09:00:31;6;6;
49708;PMS5003;35601;55.902;13.606;2022-08-03T09:02:57;7;7;
49708;PMS5003;35601;55.902;13.606;2022-08-03T09:05:26;7;7;
49708;PMS5003;35601;55.902;13.606;2022-08-03T09:07:54;9;9;
49708;PMS5003;35601;55.902;13.606;2022-08-03T09:10:20;9;9;
49708;PMS5003;35601;55.902;13.606;2022-08-03T09:12:48;10;10;
49708;PMS5003;35601;55.902;13.606;2022-08-03T09:15:17;8;8;
49708;PMS5003;35601;55.902;13.606;2022-08-03T09:17:46;9;9;
49708;PMS5003;35601;55.902;13.606;2022-08-03T09:20:13;11;11;
49708;PMS5003;35601;55.902;13.606;2022-08-03T09:22:50;11;11;
49708;PMS5003;35601;55.902;13.606;2022-08-03T09:25:24;12;10;
49708;PMS5003;35601;55.902;13.606;2022-08-03T09:27:55;10;8;
49708;PMS5003;35601;55.902;13.606;2022-08-03T09:30:31;10;10;
49708;PMS5003;35601;55.902;13.606;2022-08-03T09:32:59;11;9;
49708;PMS5003;35601;55.902;13.606;2022-08-03T09:35:27;10;10;
49708;PMS5003;35601;55.902;13.606;2022-08-03T09:38:11;11;11;
49708;PMS5003;35601;55.902;13.606;2022-08-03T09:40:39;11;11;
49708;PMS5003;35601;55.902;13.606;2022-08-03T09:43:07;9;9;
49708;PMS5003;35601;55.902;13.606;2022-08-03T09:45:36;11;9;
49708;PMS5003;35601;55.902;13.606;2022-08-03T09:48:21;14;13;
49708;PMS5003;35601;55.902;13.606;2022-08-03T09:50:50;11;11;
49708;PMS5003;35601;55.902;13.606;2022-08-03T09:53:19;11;9;
49708;PMS5003;35601;55.902;13.606;2022-08-03T09:55:51;10;8;
49708;PMS5003;35601;55.902;13.606;2022-08-03T09:58:19;11;9;
49708;PMS5003;35601;55.902;13.606;2022-08-03T10:00:56;9;9;
49708;PMS5003;35601;55.902;13.606;2022-08-03T10:03:25;9;9;
49708;PMS5003;35601;55.902;13.606;2022-08-03T10:05:54;9;8;
49708;PMS5003;35601;55.902;13.606;2022-08-03T10:08:21;9;9;
49708;PMS5003;35601;55.902;13.606;2022-08-03T10:10:49;13;11;
49708;PMS5003;35601;55.902;13.606;2022-08-03T10:13:18;6;6;
49708;PMS5003;35601;55.902;13.606;2022-08-03T10:15:46;8;8;
49708;PMS5003;35601;55.902;13.606;2022-08-03T10:18:14;9;9;
49708;PMS5003;35601;55.902;13.606;2022-08-03T10:20:43;9;9;
49708;PMS5003;35601;55.902;13.606;2022-08-03T10:23:15;9;9;
49708;PMS5003;35601;55.902;13.606;2022-08-03T10:25:44;8;8;
49708;PMS5003;35601;55.902;13.606;2022-08-03T10:28:14;11;10;
49708;PMS5003;35601;55.902;13.606;2022-08-03T10:30:46;10;10;
49708;PMS5003;35601;55.902;13.606;2022-08-03T10:33:16;13;13;
49708;PMS5003;35601;55.902;13.606;2022-08-03T10:35:46;7;7;
49708;PMS5003;35601;55.902;13.606;2022-08-03T10:38:18;9;9;
49708;PMS5003;35601;55.902;13.606;2022-08-03T10:40:47;10;8;
49708;PMS5003;35601;55.902;13.606;2022-08-03T10:43:19;10;9;
49708;PMS5003;35601;55.902;13.606;2022-08-03T10:45:48;10;9;
49708;PMS5003;35601;55.902;13.606;2022-08-03T10:48:16;9;8;
49708;PMS5003;35601;55.902;13.606;2022-08-03T10:50:45;7;6;
49708;PMS5003;35601;55.902;13.606;2022-08-03T10:53:14;9;9;
49708;PMS5003;35601;55.902;13.606;2022-08-03T10:55:41;8;8;
49708;PMS5003;35601;55.902;13.606;2022-08-03T10:58:09;7;7;
49708;PMS5003;35601;55.902;13.606;2022-08-03T11:00:47;9;9;
49708;PMS5003;35601;55.902;13.606;2022-08-03T11:03:16;11;9;
49708;PMS5003;35601;55.902;13.606;2022-08-03T11:05:43;7;7;
49708;PMS5003;35601;55.902;13.606;2022-08-03T11:08:20;10;9;
49708;PMS5003;35601;55.902;13.606;2022-08-03T11:10:56;7;5;
49708;PMS5003;35601;55.902;13.606;2022-08-03T11:13:26;7;7;
49708;PMS5003;35601;55.902;13.606;2022-08-03T11:15:55;7;7;
49708;PMS5003;35601;55.902;13.606;2022-08-03T11:18:24;7;5;
49708;PMS5003;35601;55.902;13.606;2022-08-03T11:20:52;7;5;
49708;PMS5003;35601;55.902;13.606;2022-08-03T11:23:39;5;4;
49708;PMS5003;35601;55.902;13.606;2022-08-03T11:26:10;5;5;
49708;PMS5003;35601;55.902;13.606;2022-08-03T11:28:39;5;4;
49708;PMS5003;35601;55.902;13.606;2022-08-03T11:32:11;10;9;
49708;PMS5003;35601;55.902;13.606;2022-08-03T11:35:18;5;5;
49708;PMS5003;35601;55.902;13.606;2022-08-03T11:38:03;5;5;
49708;PMS5003;35601;55.902;13.606;2022-08-03T11:40:32;5;4;
49708;PMS5003;35601;55.902;13.606;2022-08-03T11:43:06;6;6;
49708;PMS5003;35601;55.902;13.606;2022-08-03T11:46:11;6;5;
49708;PMS5003;35601;55.902;13.606;2022-08-03T11:48:41;6;5;
49708;PMS5003;35601;55.902;13.606;2022-08-03T11:51:18;6;5;
49708;PMS5003;35601;55.902;13.606;2022-08-03T11:53:46;6;4;
49708;PMS5003;35601;55.902;13.606;2022-08-03T11:56:19;5;5;
49708;PMS5003;35601;55.902;13.606;2022-08-03T11:58:46;5;5;
49708;PMS5003;35601;55.902;13.606;2022-08-03T12:01:13;5;5;
49708;PMS5003;35601;55.902;13.606;2022-08-03T12:03:41;6;4;
49708;PMS5003;35601;55.902;13.606;2022-08-03T12:06:09;4;3;
49708;PMS5003;35601;55.902;13.606;2022-08-03T12:08:37;6;5;
49708;PMS5003;35601;55.902;13.606;2022-08-03T12:11:07;6;6;
49708;PMS5003;35601;55.902;13.606;2022-08-03T12:13:36;4;4;
49708;PMS5003;35601;55.902;13.606;2022-08-03T12:16:05;5;5;
49708;PMS5003;35601;55.902;13.606;2022-08-03T12:18:33;5;5;
49708;PMS5003;35601;55.902;13.606;2022-08-03T12:21:04;5;5;
49708;PMS5003;35601;55.902;13.606;2022-08-03T12:23:34;5;5;
49708;PMS5003;35601;55.902;13.606;2022-08-03T12:26:02;5;5;
49708;PMS5003;35601;55.902;13.606;2022-08-03T12:28:31;7;6;
49708;PMS5003;35601;55.902;13.606;2022-08-03T12:31:00;8;7;
49708;PMS5003;35601;55.902;13.606;2022-08-03T12:33:28;6;5;
49708;PMS5003;35601;55.902;13.606;2022-08-03T12:36:04;7;6;
49708;PMS5003;35601;55.902;13.606;2022-08-03T12:38:33;4;4;
49708;PMS5003;35601;55.902;13.606;2022-08-03T12:41:03;7;5;
49708;PMS5003;35601;55.902;13.606;2022-08-03T12:43:33;8;7;
49708;PMS5003;35601;55.902;13.606;2022-08-03T12:46:12;8;5;
49708;PMS5003;35601;55.902;13.606;2022-08-03T12:49:13;5;4;
49708;PMS5003;35601;55.902;13.606;2022-08-03T12:51:58;8;7;
49708;PMS5003;35601;55.902;13.606;2022-08-03T12:54:27;5;5;
49708;PMS5003;35601;55.902;13.606;2022-08-03T12:56:56;4;4;
49708;PMS5003;35601;55.902;13.606;2022-08-03T12:59:24;5;3;
49708;PMS5003;35601;55.902;13.606;2022-08-03T13:01:52;4;3;
49708;PMS5003;35601;55.902;13.606;2022-08-03T13:04:24;3;3;
49708;PMS5003;35601;55.902;13.606;2022-08-03T13:06:56;7;6;
49708;PMS5003;35601;55.902;13.606;2022-08-03T13:09:24;10;6;
49708;PMS5003;35601;55.902;13.606;2022-08-03T13:12:10;4;4;
49708;PMS5003;35601;55.902;13.606;2022-08-03T13:14:41;5;5;
49708;PMS5003;35601;55.902;13.606;2022-08-03T13:17:09;6;5;
49708;PMS5003;35601;55.902;13.606;2022-08-03T13:19:37;6;5;
49708;PMS5003;35601;55.902;13.606;2022-08-03T13:22:13;7;7;
49708;PMS5003;35601;55.902;13.606;2022-08-03T13:24:42;5;5;
49708;PMS5003;35601;55.902;13.606;2022-08-03T13:27:11;3;3;
49708;PMS5003;35601;55.902;13.606;2022-08-03T13:29:39;4;4;
49708;PMS5003;35601;55.902;13.606;2022-08-03T13:32:06;4;4;
49708;PMS5003;35601;55.902;13.606;2022-08-03T13:34:34;4;4;
49708;PMS5003;35601;55.902;13.606;2022-08-03T13:37:02;5;5;
49708;PMS5003;35601;55.902;13.606;2022-08-03T13:39:29;4;4;
49708;PMS5003;35601;55.902;13.606;2022-08-03T13:41:57;4;4;
49708;PMS5003;35601;55.902;13.606;2022-08-03T13:44:23;2;2;
49708;PMS5003;35601;55.902;13.606;2022-08-03T13:46:50;3;3;
49708;PMS5003;35601;55.902;13.606;2022-08-03T13:49:18;5;5;
49708;PMS5003;35601;55.902;13.606;2022-08-03T13:51:46;6;5;
49708;PMS5003;35601;55.902;13.606;2022-08-03T13:54:13;4;4;
49708;PMS5003;35601;55.902;13.606;2022-08-03T13:56:40;6;5;
49708;PMS5003;35601;55.902;13.606;2022-08-03T13:59:07;6;6;
49708;PMS5003;35601;55.902;13.606;2022-08-03T14:01:33;6;6;
49708;PMS5003;35601;55.902;13.606;2022-08-03T14:04:00;4;4;
49708;PMS5003;35601;55.902;13.606;2022-08-03T14:06:27;5;5;
49708;PMS5003;35601;55.902;13.606;2022-08-03T14:08:54;3;3;
49708;PMS5003;35601;55.902;13.606;2022-08-03T14:11:21;6;6;
49708;PMS5003;35601;55.902;13.606;2022-08-03T14:13:48;7;7;
49708;PMS5003;35601;55.902;13.606;2022-08-03T14:16:14;6;6;
49708;PMS5003;35601;55.902;13.606;2022-08-03T14:18:41;7;7;
49708;PMS5003;35601;55.902;13.606;2022-08-03T14:21:08;4;4;
49708;PMS5003;35601;55.902;13.606;2022-08-03T14:23:35;7;5;
49708;PMS5003;35601;55.902;13.606;2022-08-03T14:26:03;8;7;
49708;PMS5003;35601;55.902;13.606;2022-08-03T14:28:30;9;7;
49708;PMS5003;35601;55.902;13.606;2022-08-03T14:30:57;10;10;
49708;PMS5003;35601;55.902;13.606;2022-08-03T14:33:25;14;12;
49708;PMS5003;35601;55.902;13.606;2022-08-03T14:35:52;12;12;
49708;PMS5003;35601;55.902;13.606;2022-08-03T14:38:19;13;13;
49708;PMS5003;35601;55.902;13.606;2022-08-03T14:40:47;16;14;
49708;PMS5003;35601;55.902;13.606;2022-08-03T14:43:15;13;13;
49708;PMS5003;35601;55.902;13.606;2022-08-03T14:45:43;11;11;
49708;PMS5003;35601;55.902;13.606;2022-08-03T14:48:10;9;9;
49708;PMS5003;35601;55.902;13.606;2022-08-03T14:50:37;10;9;
49708;PMS5003;35601;55.902;13.606;2022-08-03T14:53:05;5;5;
49708;PMS5003;35601;55.902;13.606;2022-08-03T14:55:32;10;10;
49708;PMS5003;35601;55.902;13.606;2022-08-03T14:57:58;7;7;
49708;PMS5003;35601;55.902;13.606;2022-08-03T15:00:26;9;9;
49708;PMS5003;35601;55.902;13.606;2022-08-03T15:02:53;11;11;
49708;PMS5003;35601;55.902;13.606;2022-08-03T15:05:20;10;10;
49708;PMS5003;35601;55.902;13.606;2022-08-03T15:07:47;9;7;
49708;PMS5003;35601;55.902;13.606;2022-08-03T15:10:14;12;9;
49708;PMS5003;35601;55.902;13.606;2022-08-03T15:12:41;7;7;
49708;PMS5003;35601;55.902;13.606;2022-08-03T15:15:08;7;6;
49708;PMS5003;35601;55.902;13.606;2022-08-03T15:17:35;8;7;
49708;PMS5003;35601;55.902;13.606;2022-08-03T15:20:03;8;8;
49708;PMS5003;35601;55.902;13.606;2022-08-03T15:22:33;7;7;
49708;PMS5003;35601;55.902;13.606;2022-08-03T15:25:01;4;4;
49708;PMS5003;35601;55.902;13.606;2022-08-03T15:27:30;7;7;
49708;PMS5003;35601;55.902;13.606;2022-08-03T15:29:58;8;8;
49708;PMS5003;35601;55.902;13.606;2022-08-03T15:32:25;7;7;
49708;PMS5003;35601;55.902;13.606;2022-08-03T15:34:52;8;7;
49708;PMS5003;35601;55.902;13.606;2022-08-03T15:37:19;8;7;
49708;PMS5003;35601;55.902;13.606;2022-08-03T15:39:46;8;8;
49708;PMS5003;35601;55.902;13.606;2022-08-03T15:42:13;7;7;
49708;PMS5003;35601;55.902;13.606;2022-08-03T15:44:40;9;9;
49708;PMS5003;35601;55.902;13.606;2022-08-03T15:47:06;9;9;
49708;PMS5003;35601;55.902;13.606;2022-08-03T15:49:33;6;6;
49708;PMS5003;35601;55.902;13.606;2022-08-03T15:52:00;7;7;
49708;PMS5003;35601;55.902;13.606;2022-08-03T15:54:27;7;7;
49708;PMS5003;35601;55.902;13.606;2022-08-03T15:56:54;10;8;
49708;PMS5003;35601;55.902;13.606;2022-08-03T15:59:20;8;8;
49708;PMS5003;35601;55.902;13.606;2022-08-03T16:01:47;10;10;
49708;PMS5003;35601;55.902;13.606;2022-08-03T16:04:15;10;10;
49708;PMS5003;35601;55.902;13.606;2022-08-03T16:06:41;8;8;
49708;PMS5003;35601;55.902;13.606;2022-08-03T16:09:08;10;9;
49708;PMS5003;35601;55.902;13.606;2022-08-03T16:11:35;12;10;
49708;PMS5003;35601;55.902;13.606;2022-08-03T16:14:02;8;8;
49708;PMS5003;35601;55.902;13.606;2022-08-03T16:16:29;8;8;
49708;PMS5003;35601;55.902;13.606;2022-08-03T16:18:55;11;11;
49708;PMS5003;35601;55.902;13.606;2022-08-03T16:21:22;10;9;
49708;PMS5003;35601;55.902;13.606;2022-08-03T16:23:49;10;10;
49708;PMS5003;35601;55.902;13.606;2022-08-03T16:26:16;10;10;
49708;PMS5003;35601;55.902;13.606;2022-08-03T16:28:43;11;11;
49708;PMS5003;35601;55.902;13.606;2022-08-03T16:31:10;9;9;
49708;PMS5003;35601;55.902;13.606;2022-08-03T16:33:37;10;10;
49708;PMS5003;35601;55.902;13.606;2022-08-03T16:36:04;10;9;
49708;PMS5003;35601;55.902;13.606;2022-08-03T16:38:31;9;9;
49708;PMS5003;35601;55.902;13.606;2022-08-03T16:40:58;12;11;
49708;PMS5003;35601;55.902;13.606;2022-08-03T16:43:25;12;10;